Time;durP1;ratioP1;P1;durP2;ratioP2;P2;SDS_P1;SDS_P2;PMS_P1;PMS_P2;Temp;Humidity;BMP_temperature;BMP_pressure;BME280_temperature;BME280_humidity;BME280_pressure;Samples;Min_cycle;Max_cycle;Signal;HPM_P1;HPM_P2
2024/01/29 09:39:15;;;;;;;15.07;8.50;;;;;;;2.53;100.00;100378.78;5109440;28;21054;-78
2024/01/29 09:41:43;;;;;;;13.53;8.10;;;;;;;3.10;100.00;100408.03;5109309;28;40034;-79
2024/01/29 09:44:10;;;;;;;10.90;7.73;;;;;;;3.54;99.02;100391.97;5109157;28;41467;-78
2024/01/29 09:46:40;;;;;;;11.03;6.87;;;;;;;4.19;95.05;100410.50;5089588;28;43325;-79
2024/01/29 09:49:08;;;;;;;9.17;5.97;;;;;;;4.58;89.71;100422.22;5090245;28;41235;-79
2024/01/29 09:51:36;;;;;;;8.13;5.60;;;;;;;4.88;86.38;100436.69;5090124;28;39017;-79
2024/01/29 09:54:05;;;;;;;7.17;4.80;;;;;;;5.17;85.11;100431.03;5089912;28;42189;-79
2024/01/29 09:56:34;;;;;;;7.50;4.97;;;;;;;5.44;79.50;100451.59;5140848;27;43302;-78
2024/01/29 09:59:01;;;;;;;9.90;5.80;;;;;;;6.08;76.69;100461.88;5089660;28;41456;-78
2024/01/29 10:01:29;;;;;;;8.03;5.60;;;;;;;6.98;73.20;100467.09;5108404;28;40084;-79
2024/01/29 10:03:57;;;;;;;6.57;5.37;;;;;;;7.49;70.23;100471.16;5106825;28;41399;-79
2024/01/29 10:06:24;;;;;;;7.50;5.40;;;;;;;7.77;67.64;100462.56;5090461;28;42709;-79
2024/01/29 10:08:52;;;;;;;7.90;5.90;;;;;;;7.81;66.57;100458.94;5124510;27;41328;-79
2024/01/29 10:11:20;;;;;;;8.43;5.37;;;;;;;7.91;66.06;100447.25;5107766;28;39911;-80
2024/01/29 10:13:59;;;;;;;8.00;6.17;;;;;;;7.96;65.03;100465.59;5124981;27;40716;-79
2024/01/29 10:16:27;;;;;;;11.10;6.43;;;;;;;8.03;62.56;100475.97;5090695;28;43577;-79
2024/01/29 10:18:57;;;;;;;7.30;6.23;;;;;;;8.63;61.69;100468.16;5108586;28;41804;-79
2024/01/29 10:21:25;;;;;;;7.90;6.13;;;;;;;8.92;59.30;100488.41;5091248;28;40028;-79
2024/01/29 10:23:56;;;;;;;8.23;5.63;;;;;;;8.96;59.95;100476.84;5124850;27;40649;-79
2024/01/29 10:26:24;;;;;;;8.07;5.60;;;;;;;9.52;60.04;100479.50;5104727;28;44009;-79
2024/01/29 10:29:02;;;;;;;8.50;5.27;;;;;;;10.43;55.96;100476.41;5106058;28;41270;-80
2024/01/29 10:31:30;;;;;;;6.57;5.50;;;;;;;11.49;54.46;100486.50;5106381;28;39994;-81
2024/01/29 10:33:58;;;;;;;7.37;5.30;;;;;;;13.03;51.02;100487.75;5123261;27;42145;-80
2024/01/29 10:36:26;;;;;;;6.37;4.70;;;;;;;15.12;46.81;100516.22;5107286;28;43819;-80
2024/01/29 10:38:54;;;;;;;6.47;4.83;;;;;;;17.12;43.32;100503.50;5140221;27;42576;-81
2024/01/29 10:41:24;;;;;;;6.93;4.50;;;;;;;18.38;40.22;100528.28;5107602;28;40062;-81
2024/01/29 10:43:54;;;;;;;5.00;4.33;;;;;;;19.62;38.99;100506.00;5106124;28;40762;-81
2024/01/29 10:46:23;;;;;;;5.23;4.40;;;;;;;21.19;35.22;100544.22;5106216;28;43004;-81
2024/01/29 10:48:53;;;;;;;9.53;5.07;;;;;;;21.57;32.58;100550.09;5119317;27;43627;-82
2024/01/29 10:51:23;;;;;;;5.60;4.73;;;;;;;21.07;34.59;100514.56;5092456;28;38925;-81
2024/01/29 10:53:51;;;;;;;6.80;4.90;;;;;;;21.54;33.03;100538.69;5075562;28;40822;-82
2024/01/29 10:56:20;;;;;;;5.23;4.70;;;;;;;22.41;31.68;100540.41;5092596;28;43141;-82
2024/01/29 10:58:52;;;;;;;5.40;4.90;;;;;;;23.43;30.46;100539.59;5075792;28;41296;-83
2024/01/29 11:01:20;;;;;;;6.60;4.80;;;;;;;24.84;29.31;100539.19;5110005;28;40422;-82
2024/01/29 11:03:49;;;;;;;5.15;4.65;;;;;;;26.57;26.88;100543.69;5075190;28;43446;-83
2024/01/29 11:06:24;;;;;;;5.88;4.15;;;;;;;28.01;24.19;100557.44;5076230;28;43217;-82
2024/01/29 11:08:57;;;;;;;4.35;3.95;;;;;;;29.13;23.01;100554.94;5076643;28;42767;-84
2024/01/29 11:11:27;;;;;;;4.40;4.00;;;;;;;29.93;22.61;100547.44;5093635;28;39273;-83
2024/01/29 11:13:55;;;;;;;5.68;5.15;;;;;;;30.87;21.19;100527.13;5076398;28;44241;-84
2024/01/29 11:16:23;;;;;;;4.60;4.20;;;;;;;30.55;20.99;100538.34;5127445;27;43805;-84
2024/01/29 11:18:53;;;;;;;6.55;4.57;;;;;;;30.68;20.75;100524.91;5076343;28;41222;-84
2024/01/29 11:21:24;;;;;;;4.18;3.78;;;;;;;30.30;21.30;100494.78;5093737;28;38855;-84
2024/01/29 11:23:56;;;;;;;4.20;3.80;;;;;;;29.16;21.67;100499.16;5076218;28;42251;-83
2024/01/29 11:26:26;;;;;;;4.75;4.25;;;;;;;28.26;23.26;100505.72;5090351;28;42732;-85
2024/01/29 11:28:57;;;;;;;4.53;4.00;;;;;;;26.74;24.72;100477.56;5076212;28;43743;-85
2024/01/29 11:31:26;;;;;;;8.90;4.63;;;;;;;25.04;25.73;100467.66;5110585;28;38991;-84
2024/01/29 11:34:05;;;;;;;4.93;4.23;;;;;;;24.24;26.14;100481.66;5109693;28;40631;-84
2024/01/29 11:36:33;;;;;;;5.07;4.27;;;;;;;24.27;26.86;100448.88;5108665;28;44136;-84
2024/01/29 11:39:04;;;;;;;6.83;5.17;;;;;;;25.08;25.34;100466.38;5108431;28;43578;-85
2024/01/29 11:41:32;;;;;;;5.43;4.63;;;;;;;26.16;24.55;100477.25;5075264;28;38991;-85
2024/01/29 11:44:01;;;;;;;5.57;5.05;;;;;;;27.10;22.94;100474.72;5093075;28;42019;-85
2024/01/29 11:46:30;;;;;;;6.00;4.35;;;;;;;28.19;22.46;100473.69;5074969;28;43777;-84
2024/01/29 11:48:59;;;;;;;6.18;4.82;;;;;;;29.05;21.29;100475.00;5074975;28;41106;-86
2024/01/29 11:51:27;;;;;;;4.70;4.30;;;;;;;29.52;21.12;100473.09;5074843;28;39085;-86
2024/01/29 11:53:55;;;;;;;4.95;4.55;;;;;;;29.75;20.33;100464.94;5091936;28;42465;-86
2024/01/29 11:56:23;;;;;;;4.85;4.15;;;;;;;29.85;20.68;100484.69;5091751;28;43692;-85
2024/01/29 11:59:00;;;;;;;4.82;4.30;;;;;;;29.67;20.76;100474.03;5091704;28;42947;-84
2024/01/29 12:01:28;;;;;;;7.45;5.03;;;;;;;30.09;20.12;100471.91;5090779;28;40347;-86
2024/01/29 12:03:56;;;;;;;6.05;4.60;;;;;;;30.81;19.45;100480.50;5078658;28;41253;-85
2024/01/29 12:06:25;;;;;;;5.25;4.50;;;;;;;31.44;18.97;100477.22;5083309;28;41952;-85
2024/01/29 12:08:53;;;;;;;5.03;4.50;;;;;;;31.88;18.68;100484.50;5082976;28;42107;-84
2024/01/29 12:11:22;;;;;;;5.78;4.38;;;;;;;32.38;19.00;100470.69;5100020;28;40094;-84
2024/01/29 12:13:50;;;;;;;4.88;4.45;;;;;;;32.92;17.56;100482.94;5099814;28;41754;-85
2024/01/29 12:16:18;;;;;;;4.55;4.15;;;;;;;32.83;17.67;100463.03;5117429;28;42047;-86
2024/01/29 12:18:46;;;;;;;5.28;4.30;;;;;;;32.59;18.30;100463.47;5079741;28;41296;-86
2024/01/29 12:21:14;;;;;;;5.43;4.90;;;;;;;32.16;18.42;100455.25;5076021;28;38981;-86
2024/01/29 12:23:44;;;;;;;4.55;4.13;;;;;;;31.70;19.57;100444.69;5075426;28;43102;-86
2024/01/29 12:26:13;;;;;;;5.13;4.65;;;;;;;31.70;18.43;100455.66;5075306;28;41954;-85
2024/01/29 12:28:41;;;;;;;5.38;4.72;;;;;;;31.84;18.50;100466.75;5092311;28;42116;-87
2024/01/29 12:31:08;;;;;;;4.90;4.45;;;;;;;32.24;18.80;100452.44;5075668;28;39040;-87
2024/01/29 12:33:36;;;;;;;5.03;4.53;;;;;;;32.43;18.21;100450.88;5075465;28;41576;-86
2024/01/29 12:36:15;;;;;;;4.97;4.47;;;;;;;32.39;18.37;100438.66;5075337;28;43012;-85
2024/01/29 12:38:45;;;;;;;5.70;5.20;;;;;;;32.31;18.33;100434.13;5074799;28;41231;-86
2024/01/29 12:41:13;;;;;;;6.13;4.57;;;;;;;32.39;18.03;100450.44;5075365;28;39908;-86
2024/01/29 12:43:41;;;;;;;5.53;4.90;;;;;;;32.51;17.90;100441.69;5075295;28;43327;-86
2024/01/29 12:46:12;;;;;;;9.60;4.95;;;;;;;32.34;18.58;100425.50;5074965;28;42161;-85
2024/01/29 12:48:40;;;;;;;5.57;4.85;;;;;;;32.21;18.56;100436.38;5091516;28;42398;-88
2024/01/29 12:51:10;;;;;;;5.28;4.78;;;;;;;32.31;18.01;100447.00;5075153;28;38867;-86
2024/01/29 12:53:38;;;;;;;5.53;4.55;;;;;;;32.61;18.18;100431.19;5074727;28;40652;-90
2024/01/29 12:56:08;;;;;;;6.20;4.53;;;;;;;32.87;18.09;100431.41;5091728;28;42893;-87
2024/01/29 12:58:35;;;;;;;6.45;5.00;;;;;;;32.81;17.84;100418.47;5091551;28;42037;-87
2024/01/29 13:01:03;;;;;;;6.53;4.57;;;;;;;32.73;18.02;100418.66;5075074;28;38827;-86
2024/01/29 13:03:32;;;;;;;5.32;4.82;;;;;;;32.25;17.89;100421.22;5091929;28;42872;-86
2024/01/29 13:05:59;;;;;;;6.00;5.00;;;;;;;31.50;18.75;100412.63;5074494;28;41609;-88
2024/01/29 13:08:27;;;;;;;5.25;4.72;;;;;;;31.01;19.78;100399.56;5074871;28;42473;-87
2024/01/29 13:10:54;;;;;;;5.85;5.28;;;;;;;30.76;19.62;100396.28;5074816;28;40570;-87
2024/01/29 13:13:24;;;;;;;5.13;4.60;;;;;;;30.39;19.18;100399.03;5091609;28;41752;-87
2024/01/29 13:15:52;;;;;;;5.95;5.35;;;;;;;29.69;20.21;100407.44;5074079;28;41706;-88
2024/01/29 13:18:21;;;;;;;6.97;5.30;;;;;;;29.16;20.40;100406.38;5072539;28;42566;-89
2024/01/29 13:20:48;;;;;;;5.20;4.70;;;;;;;27.89;21.34;100400.81;5074311;28;38836;-85
2024/01/29 13:23:17;;;;;;;5.90;5.07;;;;;;;26.32;22.70;100376.91;5090702;28;42189;-87
2024/01/29 13:25:47;;;;;;;6.37;4.90;;;;;;;25.20;23.09;100370.28;5073267;28;43870;-86
2024/01/29 13:28:14;;;;;;;5.00;4.50;;;;;;;24.14;24.49;100356.25;5073174;28;43581;-86
2024/01/29 13:30:44;;;;;;;5.93;5.23;;;;;;;23.20;25.56;100353.28;5107150;28;39856;-85
2024/01/29 13:33:12;;;;;;;5.00;4.50;;;;;;;22.25;26.67;100346.53;5107005;28;41559;-86
2024/01/29 13:35:39;;;;;;;5.70;5.10;;;;;;;21.45;27.41;100351.59;5106790;28;41677;-84
2024/01/29 13:38:07;;;;;;;8.10;5.50;;;;;;;20.75;28.38;100349.31;5072520;28;43057;-86
2024/01/29 13:40:35;;;;;;;5.93;5.20;;;;;;;20.00;29.18;100332.88;5089984;28;40009;-85
2024/01/29 13:43:02;;;;;;;6.47;5.60;;;;;;;19.28;29.98;100318.69;5090225;28;41899;-87
2024/01/29 13:45:30;;;;;;;6.60;4.80;;;;;;;18.70;30.67;100320.28;5090322;28;43025;-85
2024/01/29 13:47:59;;;;;;;6.47;4.90;;;;;;;18.35;31.53;100327.31;5072739;28;42295;-86
2024/01/29 13:50:26;;;;;;;6.70;5.27;;;;;;;17.83;32.51;100298.78;5073320;28;39125;-85
2024/01/29 13:52:54;;;;;;;9.17;6.10;;;;;;;17.31;33.18;100286.25;5072731;28;42438;-85
2024/01/29 13:55:22;;;;;;;7.67;6.07;;;;;;;16.99;33.79;100295.59;5089910;28;42734;-85
2024/01/29 13:57:49;;;;;;;7.40;5.23;;;;;;;16.58;34.02;100280.38;5072524;28;43301;-84
2024/01/29 14:00:17;;;;;;;6.97;5.20;;;;;;;16.40;34.55;100286.91;5090057;28;39436;-84
2024/01/29 14:02:45;;;;;;;6.47;5.57;;;;;;;16.17;35.22;100281.22;5072623;28;41754;-84
2024/01/29 14:05:14;;;;;;;9.10;5.77;;;;;;;15.89;35.98;100270.53;5073371;28;42865;-85
2024/01/29 14:07:41;;;;;;;5.57;5.07;;;;;;;15.58;36.69;100260.00;5073842;28;44671;-85
2024/01/29 14:10:10;;;;;;;6.33;5.10;;;;;;;15.55;37.22;100282.41;5090496;28;39726;-85
2024/01/29 14:12:38;;;;;;;7.00;5.33;;;;;;;15.30;37.48;100256.28;5073689;28;41922;-84
2024/01/29 14:15:07;;;;;;;9.03;6.10;;;;;;;15.42;37.66;100276.91;5090827;28;44055;-85
2024/01/29 14:17:34;;;;;;;7.73;5.90;;;;;;;15.53;37.32;100262.06;5073545;28;42584;-84
2024/01/29 14:20:03;;;;;;;6.93;5.70;;;;;;;16.10;36.78;100269.19;5073844;28;39406;-84
2024/01/29 14:22:32;;;;;;;7.03;6.00;;;;;;;16.16;36.25;100223.38;5073691;28;42382;-84
2024/01/29 14:25:00;;;;;;;7.33;6.17;;;;;;;16.77;36.33;100267.56;5093425;28;42641;-85
2024/01/29 14:27:28;;;;;;;8.00;6.27;;;;;;;17.40;35.72;100255.34;5075073;28;43547;-85
2024/01/29 14:29:56;;;;;;;8.30;5.63;;;;;;;17.99;35.08;100269.97;5077377;28;39134;-88
2024/01/29 14:32:25;;;;;;;8.70;5.67;;;;;;;18.26;34.39;100276.03;5093309;28;41986;-87
2024/01/29 14:34:53;;;;;;;6.07;5.47;;;;;;;18.39;34.14;100272.47;5073981;28;42933;-87
2024/01/29 14:37:20;;;;;;;7.00;5.27;;;;;;;18.32;34.29;100274.72;5091885;28;42980;-86
2024/01/29 14:39:49;;;;;;;5.70;5.13;;;;;;;18.00;35.06;100268.13;5075889;28;38924;-86
2024/01/29 14:42:17;;;;;;;7.27;5.70;;;;;;;17.72;35.14;100274.56;5076070;28;41132;-89
2024/01/29 14:44:46;;;;;;;7.53;5.57;;;;;;;17.17;35.61;100246.19;5074649;28;41947;-88
2024/01/29 14:47:14;;;;;;;6.63;5.07;;;;;;;16.79;36.10;100249.59;5074186;28;41423;-87
2024/01/29 14:49:41;;;;;;;6.97;5.33;;;;;;;16.49;36.70;100271.13;5075603;28;38889;-88
2024/01/29 14:52:09;;;;;;;7.73;4.80;;;;;;;16.12;37.04;100267.28;5075664;28;41875;-87
2024/01/29 14:54:37;;;;;;;7.93;5.97;;;;;;;15.77;37.48;100261.44;5074408;28;42215;-90
2024/01/29 14:57:06;;;;;;;6.87;5.40;;;;;;;15.39;38.24;100255.75;5075401;28;43720;-87
2024/01/29 14:59:33;;;;;;;4.87;4.37;;;;;;;15.18;38.74;100273.03;5074873;28;39750;-87
2024/01/29 15:02:02;;;;;;;5.27;4.57;;;;;;;14.75;39.57;100250.66;5075239;28;40692;-86
2024/01/29 15:04:31;;;;;;;6.13;4.90;;;;;;;14.31;40.32;100229.16;5075403;28;42870;-89
2024/01/29 15:06:58;;;;;;;6.43;5.33;;;;;;;14.13;40.51;100251.47;5076324;28;40684;-87
2024/01/29 15:09:26;;;;;;;6.07;4.80;;;;;;;13.84;41.10;100250.41;5075392;28;40087;-86
2024/01/29 15:11:53;;;;;;;6.67;4.57;;;;;;;13.57;41.52;100244.75;5076617;28;44255;-87
2024/01/29 15:14:23;;;;;;;5.50;4.30;;;;;;;13.39;41.85;100267.84;5093193;28;42631;-87
2024/01/29 15:16:58;;;;;;;6.47;5.13;;;;;;;13.06;42.13;100241.13;5074165;28;43052;-86
2024/01/29 15:19:26;;;;;;;7.17;4.93;;;;;;;12.75;42.49;100224.97;5076652;28;39544;-87
2024/01/29 15:21:53;;;;;;;7.93;5.60;;;;;;;12.58;42.94;100237.31;5076515;28;41638;-87
2024/01/29 15:24:21;;;;;;;5.90;5.00;;;;;;;12.50;43.47;100254.53;5076011;28;44321;-89
2024/01/29 15:26:49;;;;;;;5.23;4.63;;;;;;;12.31;43.62;100256.38;5074997;28;42393;-86
2024/01/29 15:29:17;;;;;;;6.60;4.33;;;;;;;12.11;43.96;100252.00;5074775;28;40024;-89
2024/01/29 15:31:46;;;;;;;7.90;5.30;;;;;;;11.84;43.98;100249.69;5075764;28;40902;-87
2024/01/29 15:34:15;;;;;;;7.57;5.00;;;;;;;11.68;44.18;100238.00;5076052;28;44099;-87
2024/01/29 15:36:43;;;;;;;7.20;4.87;;;;;;;11.31;44.43;100201.63;5072316;28;42890;-84
2024/01/29 15:39:11;;;;;;;9.93;6.30;;;;;;;11.37;44.80;100237.66;5075864;28;40039;-86
2024/01/29 15:41:39;;;;;;;10.00;6.40;;;;;;;11.30;44.71;100244.13;5074781;28;40964;-86
2024/01/29 15:44:06;;;;;;;9.30;5.50;;;;;;;11.00;45.40;100220.63;5073084;28;41836;-93
2024/01/29 15:46:34;;;;;;;8.43;5.67;;;;;;;10.64;45.38;100185.94;5073795;28;41193;-88
2024/01/29 15:49:03;;;;;;;7.33;5.10;;;;;;;10.53;45.58;100190.81;5074989;28;39451;-89
2024/01/29 15:51:30;;;;;;;6.50;4.97;;;;;;;10.56;45.94;100219.84;5074169;28;40780;-88
2024/01/29 15:53:58;;;;;;;6.53;4.93;;;;;;;10.46;46.45;100221.16;5074983;28;42314;-88
2024/01/29 15:56:25;;;;;;;5.57;4.87;;;;;;;10.41;46.42;100245.16;5091372;28;42489;-86
2024/01/29 15:58:55;;;;;;;7.53;4.97;;;;;;;10.15;46.31;100220.59;5074838;28;40824;-88
2024/01/29 16:01:22;;;;;;;6.27;5.07;;;;;;;10.02;46.55;100229.00;5074400;28;40871;-87
2024/01/29 16:03:50;;;;;;;7.40;4.60;;;;;;;9.83;46.69;100225.34;5074596;28;41998;-88
2024/01/29 16:06:19;;;;;;;6.70;4.60;;;;;;;9.85;47.24;100249.09;5075475;28;42929;-88
2024/01/29 16:08:46;;;;;;;7.30;5.10;;;;;;;9.50;47.46;100210.72;5075831;28;39756;-89
2024/01/29 16:11:17;;;;;;;7.47;5.43;;;;;;;9.56;47.58;100243.09;5075064;28;40538;-87
2024/01/29 16:13:47;;;;;;;6.23;4.90;;;;;;;9.24;47.56;100215.16;5076736;28;42030;-87
2024/01/29 16:16:15;;;;;;;4.90;4.10;;;;;;;9.34;47.60;100250.06;5075632;28;41284;-88
2024/01/29 16:18:43;;;;;;;6.47;4.30;;;;;;;9.13;47.57;100227.03;5076331;28;39022;-87
2024/01/29 16:21:18;;;;;;;6.47;4.53;;;;;;;9.13;47.61;100248.19;5075737;28;41000;-86
2024/01/29 16:23:47;;;;;;;6.37;4.90;;;;;;;8.82;47.82;100216.63;5076165;28;41661;-87
2024/01/29 16:26:17;;;;;;;10.67;5.57;;;;;;;8.79;49.94;100222.00;5075633;28;42358;-86
2024/01/29 16:28:45;;;;;;;8.77;6.07;;;;;;;8.64;49.34;100228.69;5075760;28;40659;-86
2024/01/29 16:31:13;;;;;;;7.77;5.47;;;;;;;8.52;49.71;100235.25;5075968;28;41196;-88
2024/01/29 16:33:40;;;;;;;7.90;5.60;;;;;;;8.44;50.11;100231.97;5091997;28;43621;-87
2024/01/29 16:36:08;;;;;;;8.87;5.60;;;;;;;8.38;50.48;100247.13;5073996;28;41601;-86
2024/01/29 16:38:36;;;;;;;7.90;5.17;;;;;;;8.21;50.19;100239.69;5074563;28;39584;-86
2024/01/29 16:41:05;;;;;;;8.43;5.47;;;;;;;8.00;50.43;100220.13;5074278;28;40687;-86
2024/01/29 16:43:33;;;;;;;9.00;5.80;;;;;;;8.02;50.19;100239.41;5074432;28;42965;-87
2024/01/29 16:46:04;;;;;;;7.97;5.60;;;;;;;7.89;51.10;100243.31;5074337;28;40852;-85
2024/01/29 16:48:32;;;;;;;9.77;6.67;;;;;;;7.66;50.85;100208.84;5074186;28;39958;-87
2024/01/29 16:51:00;;;;;;;9.20;6.37;;;;;;;7.83;51.20;100262.81;5090588;28;42962;-86
2024/01/29 16:53:27;;;;;;;7.70;5.87;;;;;;;7.60;50.96;100235.38;5074371;28;41551;-86
2024/01/29 16:55:55;;;;;;;9.40;6.30;;;;;;;7.62;50.79;100255.53;5074080;28;41151;-87
2024/01/29 16:58:24;;;;;;;11.20;7.23;;;;;;;7.41;50.92;100229.78;5091193;28;39044;-85
2024/01/29 17:00:53;;;;;;;9.73;6.03;;;;;;;7.52;50.81;100260.19;5073924;28;41011;-86
2024/01/29 17:03:21;;;;;;;11.63;7.80;;;;;;;7.23;50.96;100225.84;5074585;28;41976;-87
2024/01/29 17:05:49;;;;;;;9.33;6.80;;;;;;;6.98;51.24;100187.91;5074843;28;41253;-86
2024/01/29 17:08:17;;;;;;;7.67;6.13;;;;;;;7.02;51.24;100215.91;5092365;28;39994;-86
2024/01/29 17:10:44;;;;;;;10.07;7.37;;;;;;;6.92;51.81;100217.03;5074754;28;42120;-87
2024/01/29 17:13:12;;;;;;;9.80;6.03;;;;;;;7.11;51.44;100255.16;5075362;28;43694;-86
2024/01/29 17:15:42;;;;;;;8.87;5.67;;;;;;;6.99;51.44;100247.56;5075238;28;41180;-86
2024/01/29 17:18:10;;;;;;;9.40;5.90;;;;;;;6.92;51.56;100253.91;5073672;28;40606;-86
2024/01/29 17:20:37;;;;;;;9.47;6.03;;;;;;;6.81;52.43;100252.38;5073816;28;43256;-87
2024/01/29 17:23:05;;;;;;;10.27;5.97;;;;;;;6.70;52.34;100246.53;5073721;28;43348;-87
2024/01/29 17:25:33;;;;;;;9.90;6.67;;;;;;;6.50;52.78;100235.63;5090032;28;40909;-85
2024/01/29 17:28:01;;;;;;;7.67;5.70;;;;;;;6.48;52.93;100246.19;5074106;28;39044;-86
2024/01/29 17:30:28;;;;;;;9.93;6.77;;;;;;;6.42;53.90;100254.25;5073963;28;40443;-87
2024/01/29 17:32:57;;;;;;;8.13;5.93;;;;;;;6.32;53.62;100254.47;5073994;28;41619;-85
2024/01/29 17:35:25;;;;;;;9.37;5.97;;;;;;;6.24;53.83;100251.16;5074116;28;41117;-86
2024/01/29 17:37:52;;;;;;;9.50;6.43;;;;;;;6.28;53.90;100272.09;5090813;28;40381;-86
2024/01/29 17:40:20;;;;;;;12.00;6.20;;;;;;;6.09;54.33;100250.59;5073865;28;40752;-86
2024/01/29 17:42:47;;;;;;;7.47;6.27;;;;;;;6.02;54.96;100254.25;5073785;28;43129;-86
2024/01/29 17:45:15;;;;;;;9.73;5.90;;;;;;;5.95;54.80;100250.00;5074023;28;41213;-86
2024/01/29 17:47:44;;;;;;;7.83;5.73;;;;;;;5.88;55.13;100248.44;5073543;28;38939;-85
2024/01/29 17:50:13;;;;;;;8.23;5.47;;;;;;;5.70;55.76;100228.59;5073737;28;42499;-86
2024/01/29 17:52:41;;;;;;;7.67;6.20;;;;;;;5.86;55.42;100267.72;5073725;28;43176;-86
2024/01/29 17:55:09;;;;;;;7.77;5.90;;;;;;;5.68;55.40;100251.47;5073452;28;42262;-85
2024/01/29 17:57:36;;;;;;;9.30;6.10;;;;;;;5.55;55.83;100242.09;5090522;28;39757;-85
2024/01/29 18:00:05;;;;;;;11.07;7.10;;;;;;;5.51;56.28;100248.28;5075626;28;42137;-85
2024/01/29 18:02:36;;;;;;;10.63;7.40;;;;;;;5.43;56.55;100252.84;5093705;28;42121;-86
2024/01/29 18:05:04;;;;;;;11.77;7.80;;;;;;;5.37;56.82;100251.19;5077540;28;41216;-86
2024/01/29 18:07:34;;;;;;;10.03;7.20;;;;;;;5.30;56.96;100246.09;5077764;28;38552;-85
2024/01/29 18:10:01;;;;;;;9.23;6.43;;;;;;;5.33;56.77;100265.25;5093479;28;42474;-86
2024/01/29 18:12:30;;;;;;;8.03;6.50;;;;;;;5.27;57.28;100265.38;5077044;28;42463;-86
2024/01/29 18:14:59;;;;;;;10.57;6.73;;;;;;;5.04;57.31;100238.69;5093622;28;42200;-85
2024/01/29 18:17:32;;;;;;;11.60;7.87;;;;;;;5.07;57.03;100261.41;5077640;28;38999;-86
2024/01/29 18:20:04;;;;;;;12.43;7.80;;;;;;;4.98;57.16;100257.16;5095090;28;42027;-85
2024/01/29 18:22:36;;;;;;;12.80;7.73;;;;;;;5.01;57.54;100285.97;5128854;27;43951;-85
2024/01/29 18:25:05;;;;;;;8.77;6.37;;;;;;;4.93;57.15;100278.25;5106470;28;41649;-85
2024/01/29 18:27:33;;;;;;;9.43;6.23;;;;;;;4.76;57.73;100261.91;5099181;27;38733;-85
2024/01/29 18:30:00;;;;;;;9.83;7.00;;;;;;;4.63;57.76;100255.13;5116395;27;42503;-85
2024/01/29 18:32:28;;;;;;;11.03;7.33;;;;;;;4.61;58.14;100257.75;5099752;27;42730;-85
2024/01/29 18:34:55;;;;;;;13.73;9.77;;;;;;;4.53;58.29;100256.16;5116572;27;43736;-85
2024/01/29 18:37:23;;;;;;;12.50;8.77;;;;;;;4.49;58.45;100257.97;5098872;27;39891;-86
2024/01/29 18:39:55;;;;;;;10.40;6.93;;;;;;;4.39;58.50;100260.75;5095456;28;40879;-86
2024/01/29 18:42:22;;;;;;;14.13;9.73;;;;;;;4.24;58.45;100241.72;5088726;27;43072;-86
2024/01/29 18:44:53;;;;;;;10.23;7.53;;;;;;;4.30;58.83;100259.13;5098946;27;41090;-86
2024/01/29 18:47:20;;;;;;;12.33;8.03;;;;;;;4.23;59.09;100254.84;5099610;27;39197;-85
2024/01/29 18:49:50;;;;;;;11.83;8.40;;;;;;;4.32;59.52;100283.59;5115381;27;40880;-85
2024/01/29 18:52:17;;;;;;;13.07;8.30;;;;;;;4.17;59.53;100265.44;5112651;28;42033;-84
2024/01/29 18:54:45;;;;;;;13.43;8.23;;;;;;;4.12;59.63;100267.25;5104265;28;41444;-84
2024/01/29 18:57:14;;;;;;;13.73;9.43;;;;;;;4.19;60.20;100279.41;5099287;27;40453;-84
2024/01/29 18:59:43;;;;;;;13.07;8.97;;;;;;;4.14;61.18;100281.22;5111763;28;41650;-84
2024/01/29 19:02:11;;;;;;;14.13;9.70;;;;;;;4.08;61.58;100281.31;5087235;27;41572;-86
2024/01/29 19:04:39;;;;;;;13.70;8.97;;;;;;;3.94;61.20;100269.25;5098894;27;43676;-85
2024/01/29 19:07:07;;;;;;;13.40;9.37;;;;;;;3.93;61.15;100272.75;5082659;28;39097;-84
2024/01/29 19:09:38;;;;;;;10.07;8.33;;;;;;;4.00;61.25;100283.16;5092778;28;41631;-85
2024/01/29 19:12:07;;;;;;;10.93;8.00;;;;;;;3.96;61.44;100291.03;5110218;28;42973;-83
2024/01/29 19:14:36;;;;;;;12.10;9.20;;;;;;;3.82;61.41;100271.16;5092550;28;41394;-86
2024/01/29 19:17:04;;;;;;;7.87;6.97;;;;;;;3.77;61.15;100271.22;5075982;28;39284;-83
2024/01/29 19:19:32;;;;;;;11.57;7.67;;;;;;;3.76;61.20;100274.72;5092503;28;41734;-85
2024/01/29 19:22:00;;;;;;;12.73;8.50;;;;;;;3.68;60.75;100266.09;5075576;28;41957;-82
2024/01/29 19:24:27;;;;;;;10.87;7.47;;;;;;;3.76;60.89;100297.44;5092613;28;42370;-82
2024/01/29 19:26:55;;;;;;;11.10;7.50;;;;;;;3.24;61.13;100208.97;5092971;28;39937;-81
2024/01/29 19:29:22;;;;;;;10.93;8.23;;;;;;;3.49;60.73;100264.56;5093050;28;41851;-83
2024/01/29 19:31:56;;;;;;;12.07;8.17;;;;;;;3.40;60.83;100256.81;5092270;28;43925;-83
2024/01/29 19:34:25;;;;;;;11.47;8.87;;;;;;;3.34;61.04;100264.75;5075650;28;41897;-84
2024/01/29 19:36:54;;;;;;;12.73;9.47;;;;;;;3.44;61.00;100285.56;5075135;28;38616;-83
2024/01/29 19:39:22;;;;;;;11.97;8.97;;;;;;;3.43;61.59;100294.31;5074574;28;41678;-82
2024/01/29 19:41:51;;;;;;;13.60;9.43;;;;;;;3.33;61.76;100278.72;5092269;28;41521;-82
2024/01/29 19:44:21;;;;;;;11.87;8.47;;;;;;;3.39;62.13;100294.34;5092310;28;42870;-82
2024/01/29 19:46:52;;;;;;;14.33;8.80;;;;;;;3.21;62.05;100275.31;5074708;28;40869;-82
2024/01/29 19:49:19;;;;;;;12.07;7.93;;;;;;;3.23;62.58;100275.31;5091760;28;40892;-83
2024/01/29 19:51:47;;;;;;;13.33;8.13;;;;;;;3.18;62.66;100280.59;5075229;28;43089;-83
2024/01/29 19:54:18;;;;;;;14.60;8.50;;;;;;;3.04;62.61;100253.69;5074418;28;43103;-83
2024/01/29 19:56:47;;;;;;;10.30;7.87;;;;;;;3.16;63.05;100278.88;5090257;28;39969;-85
2024/01/29 19:59:16;;;;;;;11.20;7.73;;;;;;;3.02;62.74;100271.16;5073560;28;40581;-87
2024/01/29 20:01:47;;;;;;;12.50;7.83;;;;;;;3.17;62.77;100305.03;5089374;28;41763;-83
2024/01/29 20:04:20;;;;;;;10.87;7.23;;;;;;;3.15;63.34;100306.81;5091353;28;42286;-83
2024/01/29 20:06:49;;;;;;;15.93;10.77;;;;;;;3.00;62.95;100291.22;5074097;28;39231;-83
2024/01/29 20:09:19;;;;;;;13.03;8.20;;;;;;;2.95;63.53;100287.81;5074772;28;40490;-84
2024/01/29 20:11:51;;;;;;;11.80;7.50;;;;;;;2.93;63.93;100293.94;5074784;28;42082;-82
2024/01/29 20:14:22;;;;;;;11.97;8.57;;;;;;;2.87;63.95;100279.13;5075334;28;41318;-84
2024/01/29 20:16:50;;;;;;;8.77;7.00;;;;;;;2.85;64.57;100291.34;5091796;28;39160;-84
2024/01/29 20:19:19;;;;;;;11.23;8.10;;;;;;;2.77;67.18;100272.25;5074452;28;42072;-83
2024/01/29 20:21:47;;;;;;;13.03;9.30;;;;;;;2.86;67.76;100296.56;5073552;28;41367;-83
2024/01/29 20:24:14;;;;;;;12.87;9.10;;;;;;;2.73;67.08;100276.63;5074463;28;41431;-83
2024/01/29 20:26:42;;;;;;;11.07;7.80;;;;;;;2.80;67.19;100293.16;5073800;28;42510;-84
2024/01/29 20:29:10;;;;;;;11.63;7.97;;;;;;;2.57;67.18;100255.88;5075742;28;41063;-84
2024/01/29 20:31:37;;;;;;;12.27;8.73;;;;;;;2.69;68.39;100271.47;5073903;28;41828;-83
2024/01/29 20:34:05;;;;;;;13.03;8.73;;;;;;;2.65;67.92;100272.34;5073034;28;42554;-83
2024/01/29 20:36:34;;;;;;;10.17;6.97;;;;;;;2.60;67.41;100276.78;5089715;28;40140;-82
2024/01/29 20:39:01;;;;;;;14.63;8.53;;;;;;;2.70;67.34;100296.75;5091741;28;41949;-83
2024/01/29 20:41:29;;;;;;;12.27;8.73;;;;;;;2.57;67.17;100287.25;5089779;28;43495;-83
2024/01/29 20:43:56;;;;;;;13.13;9.00;;;;;;;2.55;67.34;100296.84;5090583;28;42667;-84
2024/01/29 20:46:24;;;;;;;12.10;8.47;;;;;;;2.56;67.90;100294.22;5072630;28;40547;-83
2024/01/29 20:48:51;;;;;;;11.67;7.60;;;;;;;2.58;68.51;100302.06;5073898;28;41772;-83
2024/01/29 20:51:19;;;;;;;12.27;8.07;;;;;;;2.42;68.41;100276.00;5073248;28;41628;-82
2024/01/29 20:53:48;;;;;;;13.40;8.40;;;;;;;2.42;68.18;100286.47;5090632;28;42264;-85
2024/01/29 20:56:16;;;;;;;14.83;8.43;;;;;;;2.50;68.16;100295.13;5090751;28;40393;-83
2024/01/29 20:58:43;;;;;;;10.83;8.10;;;;;;;2.48;68.54;100306.47;5090579;28;41937;-83
2024/01/29 21:01:11;;;;;;;13.70;8.93;;;;;;;2.43;68.32;100303.88;5072098;28;41703;-82
2024/01/29 21:03:39;;;;;;;11.90;8.87;;;;;;;2.42;68.49;100304.78;5073073;28;41224;-83
2024/01/29 21:06:06;;;;;;;12.53;8.27;;;;;;;2.39;68.31;100307.41;5073690;28;38542;-82
2024/01/29 21:08:34;;;;;;;11.77;8.33;;;;;;;2.36;68.15;100309.16;5074321;28;40662;-83
2024/01/29 21:11:03;;;;;;;11.80;7.40;;;;;;;2.20;68.28;100290.09;5073677;28;42756;-82